CheckWX is a tool to help pilots better visualize weather data.  It is not intended as a substitute for an official pre-flight weather briefing.

06:55:57 UTC

LFRZ TAF
Saint-Nazaire-Montoir Airport
Saint-Nazaire/Montoir, France
TAF AMD LFRZ 190546Z 1906/2006 24010KT 9999 SCT020 SCT050 TEMPO 1906/1909 BKN009 TEMPO 1909/1921 SHRA BKN020 SCT030TCU PROB30 TEMPO 1921/2003 -SHRA BKN010 SCT020TCU

Jun-19@
06:00 UTC

Jun-19 @ 06:00 UTC

Jun-20@
06:00 UTC

Jun-20 @ 06:00 UTC

TAF AMD LFRZ 190546Z 1906/2006 24010KT 9999 SCT020 SCT050
Wind
  • 240° at 10 KTS
Cloud Levels
  • Scattered at 2,000' AGL
  • Scattered at 5,000' AGL

Jun-19@
06:00 UTC

Jun-19 @ 06:00 UTC

Jun-19@
09:00 UTC

Jun-19 @ 09:00 UTC

TEMPO 1906/1909 BKN009

Temporary

Temporary Changes expected for less than half the time period

Cloud Levels
  • Broken at 900' AGL

Jun-19@
09:00 UTC

Jun-19 @ 09:00 UTC

Jun-19@
21:00 UTC

Jun-19 @ 21:00 UTC

TEMPO 1909/1921 SHRA BKN020 SCT030TCU

Temporary

Temporary Changes expected for less than half the time period

Conditions
Rain
Cloud Levels
  • Broken at 2,000' AGL
  • Scattered at 3,000' AGL

Jun-19@
21:00 UTC

Jun-19 @ 21:00 UTC

Jun-20@
03:00 UTC

Jun-20 @ 03:00 UTC

PROB30 TEMPO 1921/2003 -SHRA BKN010 SCT020TCU

Temporary - 30% Likelihood

Temporary - 30% Likelihood during this time.

Conditions
Light Rain
Cloud Levels
  • Broken at 1,000' AGL
  • Scattered at 2,000' AGL